Time;durP1;ratioP1;P1;durP2;ratioP2;P2;SDS_P1;SDS_P2;PMS_P1;PMS_P2;Temp;Humidity;BMP_temperature;BMP_pressure;BME280_temperature;BME280_humidity;BME280_pressure;Samples;Min_cycle;Max_cycle;Signal;HPM_P1;HPM_P2
2022/09/14 00:00:54;;;;;;;;;;;;;;;;;;6156538;23;20029;-78
2022/09/14 00:03:19;;;;;;;5.00;4.40;;;;;;;;;;6181003;23;19905;-78
2022/09/14 00:05:45;;;;;;;;;;;;;;;;;;6157294;23;20020;-78
2022/09/14 00:08:11;;;;;;;6.57;5.10;;;;;;;;;;6155204;23;19904;-78
2022/09/14 00:10:36;;;;;;;;;;;;;;;;;;6156854;23;20349;-78
2022/09/14 00:13:02;;;;;;;7.40;5.40;;;;;;;;;;6157386;23;19905;-78
2022/09/14 00:15:27;;;;;;;;;;;;;;;;;;6161184;23;20103;-79
2022/09/14 00:17:52;;;;;;;7.00;5.10;;;;;;;;;;6162558;23;20415;-78
2022/09/14 00:20:18;;;;;;;;;;;;;;;;;;6136612;23;20008;-79
2022/09/14 00:22:43;;;;;;;6.85;5.90;;;;;;;;;;6186988;23;19986;-78
2022/09/14 00:25:09;;;;;;;;;;;;;;;;;;6187262;23;20016;-78
2022/09/14 00:27:34;;;;;;;7.22;6.53;;;;;;;;;;6186860;23;19904;-78
2022/09/14 00:29:59;;;;;;;;;;;;;;;;;;6136831;23;20376;-77
2022/09/14 00:32:25;;;;;;;6.75;4.95;;;;;;;;;;6186871;23;19911;-77
2022/09/14 00:34:50;;;;;;;;;;;;;;;;;;6137687;23;20016;-78
2022/09/14 00:37:16;;;;;;;6.03;5.00;;;;;;;;;;6160637;23;19904;-78
2022/09/14 00:39:41;;;;;;;;;;;;;;;;;;6161482;23;20517;-78
2022/09/14 00:42:07;;;;;;;5.72;4.63;;;;;;;;;;6187905;23;20288;-78
2022/09/14 00:44:32;;;;;;;;;;;;;;;;;;6162085;23;20012;-78
2022/09/14 00:47:00;;;;;;;7.50;4.70;;;;;;;;;;6160237;23;19904;-77
2022/09/14 00:49:28;;;;;;;5.82;4.07;;;;;;;;;;6136193;23;20009;-77
2022/09/14 00:52:14;;;;;;;4.30;3.85;;;;;;;;;;6160185;23;20432;-77
2022/09/14 00:54:39;;;;;;;5.97;4.10;;;;;;;;;;6185685;23;20080;-79
2022/09/14 00:57:05;;;;;;;;;;;;;;;;;;6160482;23;20340;-78
2022/09/14 00:59:32;;;;;;;6.10;3.75;;;;;;;;;;6160518;23;19958;-78
2022/09/14 01:01:57;;;;;;;4.55;3.70;;;;;;;;;;6160728;23;20009;-77
2022/09/14 01:04:23;;;;;;;;;;;;;;;;;;6160851;23;20074;-77
2022/09/14 01:06:53;;;;;;;4.80;3.47;;;;;;;;;;6160125;23;19911;-77
2022/09/14 01:09:25;;;;;;;4.20;3.80;;;;;;;;;;6135924;23;20460;-77
2022/09/14 01:12:01;;;;;;;4.85;3.78;;;;;;;;;;6186834;23;20032;-77
2022/09/14 01:14:40;;;;;;;3.72;3.28;;;;;;;;;;6184574;23;20104;-78
2022/09/14 01:17:10;;;;;;;4.57;3.60;;;;;;;;;;6136985;23;20016;-79
2022/09/14 01:19:54;;;;;;;4.18;3.38;;;;;;;;;;6135628;23;20009;-78
2022/09/14 01:22:24;;;;;;;5.00;3.83;;;;;;;;;;6159950;23;20040;-78
2022/09/14 01:24:53;;;;;;;4.75;3.45;;;;;;;;;;6135292;23;20394;-78
2022/09/14 01:27:25;;;;;;;4.10;3.70;;;;;;;;;;6160009;23;20479;-78
2022/09/14 01:29:54;;;;;;;4.03;3.45;;;;;;;;;;6160093;23;20009;-78
2022/09/14 01:32:19;;;;;;;5.32;3.63;;;;;;;;;;6135430;23;19993;-79
2022/09/14 01:34:44;;;;;;;;;;;;;;;;;;6160613;23;20009;-78
2022/09/14 01:37:15;;;;;;;4.05;3.60;;;;;;;;;;6186525;23;19911;-78
2022/09/14 01:39:42;;;;;;;4.97;3.65;;;;;;;;;;6111408;23;20020;-78
2022/09/14 01:42:08;;;;;;;6.03;4.03;;;;;;;;;;6110989;23;20001;-78
2022/09/14 01:44:34;;;;;;;;;;;;;;;;;;6184805;23;20083;-79
2022/09/14 01:47:02;;;;;;;5.63;4.10;;;;;;;;;;6159870;23;19908;-79
2022/09/14 01:49:38;;;;;;;5.72;4.50;;;;;;;;;;6160050;23;20009;-78
2022/09/14 01:52:05;;;;;;;5.13;4.00;;;;;;;;;;6160293;23;20376;-78
2022/09/14 01:54:35;;;;;;;4.93;4.22;;;;;;;;;;6135463;23;20008;-79
2022/09/14 01:57:01;;;;;;;9.23;6.90;;;;;;;;;;6135297;23;20067;-79
2022/09/14 01:59:26;;;;;;;;;;;;;;;;;;6186544;23;20009;-79
2022/09/14 02:02:01;;;;;;;8.05;6.07;;;;;;;;;;6159680;23;19987;-78
2022/09/14 02:04:34;;;;;;;5.82;4.10;;;;;;;;;;6135195;23;20016;-79
2022/09/14 02:06:59;;;;;;;5.68;4.57;;;;;;;;;;6111652;23;20024;-78
2022/09/14 02:09:25;;;;;;;;;;;;;;;;;;6160044;23;20001;-78
2022/09/14 02:11:51;;;;;;;7.03;4.72;;;;;;;;;;6186042;23;19914;-79
2022/09/14 02:14:17;;;;;;;7.03;6.00;;;;;;;;;;6159614;23;20103;-79
2022/09/14 02:16:44;;;;;;;;;;;;;;;;;;6159919;23;20013;-79
2022/09/14 02:19:10;;;;;;;;;;;;;;;;;;6186335;23;19904;-80
2022/09/14 02:21:37;;;;;;;9.27;5.93;;;;;;;;;;6159844;23;19915;-78
2022/09/14 02:24:02;;;;;;;9.30;6.30;;;;;;;;;;6159736;23;20076;-78
2022/09/14 02:26:28;;;;;;;;;;;;;;;;;;6159737;23;20095;-78
2022/09/14 02:28:54;;;;;;;10.10;6.88;;;;;;;;;;6185688;23;19997;-78
2022/09/14 02:31:26;;;;;;;8.30;6.38;;;;;;;;;;6185867;23;20016;-78
2022/09/14 02:34:07;;;;;;;8.32;6.32;;;;;;;;;;6186157;23;20404;-78
2022/09/14 02:36:36;;;;;;;7.07;5.65;;;;;;;;;;6159717;23;20063;-77
2022/09/14 02:39:21;;;;;;;7.85;5.25;;;;;;;;;;6185867;23;19997;-77
2022/09/14 02:42:02;;;;;;;7.35;5.00;;;;;;;;;;6186149;23;20009;-78
2022/09/14 02:44:47;;;;;;;5.85;4.53;;;;;;;;;;6159837;23;20017;-77
2022/09/14 02:47:34;;;;;;;5.65;4.75;;;;;;;;;;6158506;23;20031;-78
2022/09/14 02:50:15;;;;;;;5.90;5.03;;;;;;;;;;6160021;23;20013;-77
2022/09/14 02:52:47;;;;;;;7.05;4.90;;;;;;;;;;6161198;23;20036;-79
2022/09/14 02:55:13;;;;;;;6.55;4.70;;;;;;;;;;6159115;23;20013;-77
2022/09/14 02:57:57;;;;;;;11.90;7.05;;;;;;;;;;6159835;23;20036;-77
2022/09/14 03:00:23;;;;;;;5.68;4.93;;;;;;;;;;6159588;23;20013;-78
2022/09/14 03:02:48;;;;;;;;;;;;;;;;;;6135764;23;20032;-79
2022/09/14 03:05:14;;;;;;;5.90;4.70;;;;;;;;;;6185390;23;19942;-79
2022/09/14 03:07:39;;;;;;;;;;;;;;;;;;6159648;23;20044;-79
2022/09/14 03:10:05;;;;;;;7.03;5.72;;;;;;;;;;6159119;23;19908;-79
2022/09/14 03:12:30;;;;;;;;;;;;;;;;;;6186078;23;20047;-79
2022/09/14 03:14:56;;;;;;;6.10;5.13;;;;;;;;;;6185284;23;19920;-80
2022/09/14 03:17:21;;;;;;;;;;;;;;;;;;6160086;23;20017;-79
2022/09/14 03:19:47;;;;;;;17.27;12.50;;;;;;;;;;6160627;23;19923;-77
2022/09/14 03:22:12;;;;;;;;;;;;;;;;;;6186729;23;20076;-78
2022/09/14 03:24:37;;;;;;;5.90;5.18;;;;;;;;;;6161796;23;20209;-79
2022/09/14 03:27:03;;;;;;;;;;;;;;;;;;6161486;23;19997;-79
2022/09/14 03:29:28;;;;;;;8.13;5.00;;;;;;;;;;6161506;23;19970;-79
2022/09/14 03:31:54;;;;;;;;;;;;;;;;;;6162203;23;20005;-78
2022/09/14 03:34:19;;;;;;;6.15;4.13;;;;;;;;;;6161750;23;19916;-79
2022/09/14 03:36:45;;;;;;;;;;;;;;;;;;6162028;23;20389;-77
2022/09/14 03:39:11;;;;;;;5.93;4.57;;;;;;;;;;6162202;23;19908;-78
2022/09/14 03:41:36;;;;;;;;;;;;;;;;;;6162080;23;20401;-79
2022/09/14 03:44:02;;;;;;;6.97;4.72;;;;;;;;;;6161965;23;19962;-79
2022/09/14 03:46:27;;;;;;;;;;;;;;;;;;6162289;23;20016;-78
2022/09/14 03:48:53;;;;;;;4.97;4.10;;;;;;;;;;6161467;23;20357;-79
2022/09/14 03:51:18;;;;;;;;;;;;;;;;;;6161907;23;20008;-78
2022/09/14 03:53:44;;;;;;;12.10;9.05;;;;;;;;;;6188361;23;19962;-80
2022/09/14 03:56:09;;;;;;;;;;;;;;;;;;6163599;23;20324;-77
2022/09/14 03:58:35;;;;;;;8.30;6.88;;;;;;;;;;6189078;23;19915;-80
2022/09/14 04:01:00;;;;;;;;;;;;;;;;;;6113629;23;20024;-80
2022/09/14 04:03:26;;;;;;;6.25;4.75;;;;;;;;;;6161384;23;19908;-79
2022/09/14 04:05:51;;;;;;;;;;;;;;;;;;6161940;23;20001;-78
2022/09/14 04:08:17;;;;;;;6.97;4.55;;;;;;;;;;6188387;23;19908;-77
2022/09/14 04:10:42;;;;;;;;;;;;;;;;;;6162282;23;20012;-77
2022/09/14 04:13:07;;;;;;;7.03;5.25;;;;;;;;;;6161109;23;19908;-78
2022/09/14 04:15:33;;;;;;;;;;;;;;;;;;6161653;23;20016;-78
2022/09/14 04:17:59;;;;;;;7.55;6.70;;;;;;;;;;6187786;23;19912;-78
2022/09/14 04:20:24;;;;;;;;;;;;;;;;;;6162195;23;20013;-78
2022/09/14 04:22:49;;;;;;;8.00;6.60;;;;;;;;;;6161590;23;19955;-78
2022/09/14 04:25:15;;;;;;;;;;;;;;;;;;6161907;23;20310;-78
2022/09/14 04:27:40;;;;;;;7.60;5.95;;;;;;;;;;6187999;23;19936;-79
2022/09/14 04:30:05;;;;;;;;;;;;;;;;;;6113368;23;19997;-78
2022/09/14 04:32:31;;;;;;;9.45;6.47;;;;;;;;;;6162240;23;19979;-79
2022/09/14 04:34:56;;;;;;;;;;;;;;;;;;6137910;23;20000;-77
2022/09/14 04:37:22;;;;;;;6.72;4.85;;;;;;;;;;6187433;23;20394;-78
2022/09/14 04:39:47;;;;;;;;;;;;;;;;;;6188192;23;20001;-79
2022/09/14 04:42:13;;;;;;;7.88;6.40;;;;;;;;;;6161123;23;19908;-78
2022/09/14 04:44:38;;;;;;;;;;;;;;;;;;6151243;23;20028;-82
2022/09/14 04:47:04;;;;;;;12.55;9.75;;;;;;;;;;6164877;23;19914;-80
2022/09/14 04:49:30;;;;;;;;;;;;;;;;;;6160760;23;20372;-78
2022/09/14 04:51:55;;;;;;;9.23;5.20;;;;;;;;;;6187437;23;19908;-78
2022/09/14 04:54:20;;;;;;;;;;;;;;;;;;6190408;23;19997;-80
2022/09/14 04:56:46;;;;;;;8.00;4.30;;;;;;;;;;6164898;23;19912;-79
2022/09/14 04:59:11;;;;;;;;;;;;;;;;;;6190213;23;20451;-80
2022/09/14 05:01:39;;;;;;;6.70;4.93;;;;;;;;;;6167307;23;19908;-81
2022/09/14 05:04:05;;;;;;;7.38;5.57;;;;;;;;;;6116263;23;20028;-80
2022/09/14 05:06:30;;;;;;;;;;;;;;;;;;6143385;23;20016;-81
2022/09/14 05:08:56;;;;;;;6.63;5.38;;;;;;;;;;6192887;23;19935;-80
2022/09/14 05:11:21;;;;;;;;;;;;;;;;;;6169797;23;20012;-80
2022/09/14 05:13:47;;;;;;;9.10;5.80;;;;;;;;;;6172448;23;19936;-81
2022/09/14 05:16:12;;;;;;;;;;;;;;;;;;6146035;23;20040;-81
2022/09/14 05:18:38;;;;;;;7.25;5.22;;;;;;;;;;6166729;23;19951;-79
2022/09/14 05:21:03;;;;;;;;;;;;;;;;;;6166522;23;20013;-81
2022/09/14 05:23:29;;;;;;;10.65;8.18;;;;;;;;;;6167797;23;19908;-81
2022/09/14 05:25:55;;;;;;;8.48;5.40;;;;;;;;;;6140736;23;20023;-80
2022/09/14 05:28:20;;;;;;;;;;;;;;;;;;6168228;23;19997;-80
2022/09/14 05:30:46;;;;;;;7.22;5.07;;;;;;;;;;6167768;23;19908;-80
2022/09/14 05:33:11;;;;;;;;;;;;;;;;;;6170357;23;20003;-80
2022/09/14 05:35:37;;;;;;;6.10;5.20;;;;;;;;;;6167115;23;19908;-81
2022/09/14 05:38:02;;;;;;;;;;;;;;;;;;6195463;23;20432;-82
2022/09/14 05:40:28;;;;;;;6.97;5.60;;;;;;;;;;6171320;23;19904;-80
2022/09/14 05:42:53;;;;;;;;;;;;;;;;;;6167373;23;20001;-81
2022/09/14 05:45:19;;;;;;;7.15;4.57;;;;;;;;;;6165431;23;19916;-81
2022/09/14 05:47:44;;;;;;;;;;;;;;;;;;6168223;23;19996;-80
2022/09/14 05:50:10;;;;;;;6.88;5.57;;;;;;;;;;6169035;23;19951;-79
2022/09/14 05:52:35;;;;;;;;;;;;;;;;;;6140948;23;20012;-80
2022/09/14 05:55:01;;;;;;;11.70;8.65;;;;;;;;;;6163887;23;20355;-80
2022/09/14 05:57:26;;;;;;;;;;;;;;;;;;6165353;23;20444;-80
2022/09/14 05:59:52;;;;;;;15.38;12.82;;;;;;;;;;6191915;23;19986;-81
2022/09/14 06:02:17;;;;;;;;;;;;;;;;;;6192881;23;20013;-81
2022/09/14 06:04:43;;;;;;;12.55;9.77;;;;;;;;;;6168467;23;19918;-81
2022/09/14 06:07:08;;;;;;;;;;;;;;;;;;6144103;23;20008;-80
2022/09/14 06:09:34;;;;;;;9.95;6.93;;;;;;;;;;6193469;23;19908;-80
2022/09/14 06:11:59;;;;;;;;;;;;;;;;;;6116977;23;20432;-80
2022/09/14 06:14:25;;;;;;;8.15;6.07;;;;;;;;;;6191329;23;19912;-80
2022/09/14 06:16:50;;;;;;;;;;;;;;;;;;6140768;23;20047;-79
2022/09/14 06:19:15;;;;;;;8.95;6.78;;;;;;;;;;6167117;23;19915;-81
2022/09/14 06:21:42;;;;;;;;;;;;;;;;;;6141270;23;20029;-80
2022/09/14 06:24:08;;;;;;;7.15;5.75;;;;;;;;;;6165541;23;19908;-81
2022/09/14 06:26:34;;;;;;;6.55;5.00;;;;;;;;;;6166206;23;20001;-81
2022/09/14 06:28:59;;;;;;;;;;;;;;;;;;6143757;23;20064;-81
2022/09/14 06:31:25;;;;;;;13.55;9.77;;;;;;;;;;6191898;23;19904;-83
2022/09/14 06:33:50;;;;;;;;;;;;;;;;;;6146008;23;20044;-80
2022/09/14 06:36:18;;;;;;;9.35;5.40;;;;;;;;;;6170118;23;19955;-81
2022/09/14 06:38:44;;;;;;;7.80;5.80;;;;;;;;;;6172106;23;20013;-81
2022/09/14 06:41:09;;;;;;;;;;;;;;;;;;6175318;23;20064;-82
2022/09/14 06:43:36;;;;;;;8.55;5.75;;;;;;;;;;6172453;23;19923;-81
2022/09/14 06:46:20;;;;;;;7.40;5.60;;;;;;;;;;6125164;23;20016;-81
2022/09/14 06:48:50;;;;;;;8.10;5.97;;;;;;;;;;6116373;23;20052;-81
2022/09/14 06:51:20;;;;;;;6.70;5.50;;;;;;;;;;6165760;23;20016;-81
2022/09/14 06:53:45;;;;;;;6.97;4.82;;;;;;;;;;6167281;23;20400;-79
2022/09/14 06:56:11;;;;;;;;;;;;;;;;;;6146057;23;20008;-80
2022/09/14 06:58:36;;;;;;;7.18;6.25;;;;;;;;;;6194946;23;19912;-82
2022/09/14 07:01:02;;;;;;;;;;;;;;;;;;6145385;23;20007;-80
2022/09/14 07:03:27;;;;;;;8.43;5.75;;;;;;;;;;6196440;23;19908;-81
2022/09/14 07:05:53;;;;;;;;;;;;;;;;;;6171010;23;20008;-80
2022/09/14 07:08:18;;;;;;;6.75;5.82;;;;;;;;;;6195438;23;20287;-79
2022/09/14 07:10:44;;;;;;;;;;;;;;;;;;6122158;23;19997;-80
2022/09/14 07:13:09;;;;;;;7.43;6.25;;;;;;;;;;6171692;23;20303;-81
2022/09/14 07:15:35;;;;;;;7.45;5.75;;;;;;;;;;6173159;23;20024;-82
2022/09/14 07:18:00;;;;;;;;;;;;;;;;;;6148401;23;20334;-80
2022/09/14 07:20:26;;;;;;;6.32;5.22;;;;;;;;;;6174293;23;19927;-81
2022/09/14 07:22:51;;;;;;;;;;;;;;;;;;6147065;23;20325;-80
2022/09/14 07:25:16;;;;;;;6.63;5.38;;;;;;;;;;6195956;23;19908;-81
2022/09/14 07:27:42;;;;;;;;;;;;;;;;;;6171809;23;20044;-81
2022/09/14 07:30:08;;;;;;;11.88;6.05;;;;;;;;;;6172019;23;19904;-82
2022/09/14 07:32:33;;;;;;;9.95;7.53;;;;;;;;;;6172457;23;20009;-82
2022/09/14 07:35:00;;;;;;;8.88;6.55;;;;;;;;;;6121644;23;20016;-82
2022/09/14 07:37:26;;;;;;;8.27;6.30;;;;;;;;;;6143943;23;20024;-81
2022/09/14 07:39:51;;;;;;;;;;;;;;;;;;6169847;23;20020;-80
2022/09/14 07:42:16;;;;;;;8.70;6.70;;;;;;;;;;6167248;23;19958;-80
2022/09/14 07:44:42;;;;;;;;;;;;;;;;;;6194001;23;20024;-79
2022/09/14 07:47:07;;;;;;;10.35;6.30;;;;;;;;;;6166928;23;20367;-81
2022/09/14 07:49:33;;;;;;;;;;;;;;;;;;6147072;23;20417;-82
2022/09/14 07:51:58;;;;;;;6.45;5.25;;;;;;;;;;6196541;23;19909;-81
2022/09/14 07:54:24;;;;;;;;;;;;;;;;;;6147789;23;19997;-81
2022/09/14 07:56:49;;;;;;;8.07;5.43;;;;;;;;;;6169978;23;20296;-79
2022/09/14 07:59:15;;;;;;;7.50;5.00;;;;;;;;;;6125295;23;20005;-81
2022/09/14 08:01:40;;;;;;;;;;;;;;;;;;6150425;23;20062;-81
2022/09/14 08:04:08;;;;;;;6.28;5.28;;;;;;;;;;6173845;23;20015;-81
2022/09/14 08:06:33;;;;;;;6.55;5.80;;;;;;;;;;6175930;23;20358;-81
2022/09/14 08:08:59;;;;;;;;;;;;;;;;;;6174666;23;20055;-81
2022/09/14 08:11:25;;;;;;;7.47;5.40;;;;;;;;;;6171152;23;19908;-84
2022/09/14 08:13:52;;;;;;;7.00;4.93;;;;;;;;;;6148010;23;20024;-80
2022/09/14 08:16:18;;;;;;;5.30;4.50;;;;;;;;;;6150121;23;20009;-82
2022/09/14 08:18:45;;;;;;;7.20;5.47;;;;;;;;;;6175820;23;20017;-83
2022/09/14 08:21:10;;;;;;;;;;;;;;;;;;6173938;23;20020;-82
2022/09/14 08:23:36;;;;;;;7.35;5.20;;;;;;;;;;6199530;23;19904;-81
2022/09/14 08:26:01;;;;;;;;;;;;;;;;;;6175954;23;20029;-81
2022/09/14 08:28:26;;;;;;;6.93;4.65;;;;;;;;;;6200831;23;19904;-82
2022/09/14 08:30:52;;;;;;;;;;;;;;;;;;6202763;23;20004;-83
2022/09/14 08:33:38;;;;;;;5.65;4.40;;;;;;;;;;6176820;23;19904;-82
2022/09/14 08:36:05;;;;;;;5.22;4.15;;;;;;;;;;6205343;23;20017;-79
2022/09/14 08:38:31;;;;;;;7.40;4.40;;;;;;;;;;6150847;23;20017;-82
2022/09/14 08:40:57;;;;;;;5.78;4.63;;;;;;;;;;6152342;23;20016;-80
2022/09/14 08:43:22;;;;;;;;;;;;;;;;;;6174116;23;20017;-80
2022/09/14 08:48:37;;;;;;;7.28;6.47;;;;;;;;;;6175355;23;20015;-84
2022/09/14 08:51:03;;;;;;;7.70;6.80;;;;;;;;;;6149895;23;20045;-81
2022/09/14 08:56:18;;;;;;;6.85;5.45;;;;;;;;;;6235710;23;20039;-84
2022/09/14 08:58:53;;;;;;;6.50;5.13;;;;;;;;;;6207363;23;20436;-80
2022/09/14 09:01:32;;;;;;;10.13;5.80;;;;;;;;;;6237434;23;20043;-81
2022/09/14 09:04:00;;;;;;;7.05;5.50;;;;;;;;;;6234371;23;20072;-84
2022/09/14 09:06:39;;;;;;;6.30;5.38;;;;;;;;;;6206535;23;20009;-81
2022/09/14 09:09:11;;;;;;;9.65;6.45;;;;;;;;;;6233409;23;20028;-81
2022/09/14 09:11:40;;;;;;;8.35;6.93;;;;;;;;;;6185603;23;20064;-82
2022/09/14 09:14:15;;;;;;;11.75;6.45;;;;;;;;;;6183163;23;19985;-82
2022/09/14 09:16:41;;;;;;;9.35;7.88;;;;;;;;;;6180596;23;20017;-84
2022/09/14 09:19:06;;;;;;;;;;;;;;;;;;6204732;23;20057;-82
2022/09/14 09:21:34;;;;;;;7.82;6.60;;;;;;;;;;6206271;23;19908;-82
2022/09/14 09:24:18;;;;;;;6.75;5.43;;;;;;;;;;6183541;23;20012;-81
2022/09/14 09:26:46;;;;;;;5.25;4.07;;;;;;;;;;6236308;23;20024;-83
2022/09/14 09:29:20;;;;;;;6.00;3.03;;;;;;;;;;6209915;23;20011;-82
2022/09/14 09:32:04;;;;;;;6.90;3.75;;;;;;;;;;6238970;23;20125;-80
2022/09/14 09:34:50;;;;;;;3.63;2.80;;;;;;;;;;6171758;23;20040;-83
2022/09/14 09:37:36;;;;;;;3.60;2.80;;;;;;;;;;6187766;23;20018;-83
2022/09/14 09:40:02;;;;;;;3.25;2.60;;;;;;;;;;6153552;23;20005;-83
2022/09/14 09:42:27;;;;;;;;;;;;;;;;;;6204514;23;20007;-79
2022/09/14 09:44:54;;;;;;;3.73;2.80;;;;;;;;;;6204293;23;19911;-80
2022/09/14 09:47:19;;;;;;;;;;;;;;;;;;6231939;23;20092;-81
2022/09/14 09:49:47;;;;;;;3.47;2.05;;;;;;;;;;6208324;23;19939;-82
2022/09/14 09:52:13;;;;;;;2.67;1.90;;;;;;;;;;6154332;23;19996;-81
2022/09/14 09:54:40;;;;;;;3.00;2.10;;;;;;;;;;6177260;23;20522;-84
2022/09/14 09:57:25;;;;;;;3.13;1.90;;;;;;;;;;6177179;23;20016;-82
2022/09/14 09:59:52;;;;;;;4.03;2.50;;;;;;;;;;6226389;23;19997;-83
2022/09/14 10:02:27;;;;;;;3.80;2.40;;;;;;;;;;6176653;23;20077;-81
2022/09/14 10:04:59;;;;;;;3.22;2.10;;;;;;;;;;6180122;23;19997;-80
2022/09/14 10:07:25;;;;;;;3.05;1.88;;;;;;;;;;6203870;23;20448;-81
2022/09/14 10:09:50;;;;;;;;;;;;;;;;;;6179671;23;19988;-81
2022/09/14 10:12:23;;;;;;;2.53;1.65;;;;;;;;;;6206159;23;19915;-82
2022/09/14 10:14:48;;;;;;;2.83;1.70;;;;;;;;;;6184503;23;20072;-83
2022/09/14 10:19:57;;;;;;;2.33;1.52;;;;;;;;;;6225436;23;19926;-81
2022/09/14 10:22:29;;;;;;;2.70;1.60;;;;;;;;;;6181077;23;20020;-83
2022/09/14 10:24:58;;;;;;;4.75;1.80;;;;;;;;;;6180056;23;20012;-83
2022/09/14 10:27:30;;;;;;;3.90;2.60;;;;;;;;;;6181190;23;20016;-82
2022/09/14 10:29:56;;;;;;;4.10;2.00;;;;;;;;;;6181841;23;20016;-84
2022/09/14 10:32:24;;;;;;;3.97;2.20;;;;;;;;;;6209461;23;19997;-84
2022/09/14 10:34:50;;;;;;;;;;;;;;;;;;6186888;23;20023;-83
2022/09/14 10:37:30;;;;;;;4.53;2.63;;;;;;;;;;6214353;23;19884;-85
2022/09/14 10:40:06;;;;;;;4.18;2.05;;;;;;;;;;6217595;23;20024;-82
2022/09/14 10:45:18;;;;;;;3.60;2.13;;;;;;;;;;6239122;23;19900;-82
2022/09/14 10:47:48;;;;;;;4.18;1.90;;;;;;;;;;6230597;23;20356;-82
2022/09/14 10:50:14;;;;;;;;;;;;;;;;;;6202099;23;20004;-83
2022/09/14 10:52:58;;;;;;;6.55;2.08;;;;;;;;;;6202988;23;19908;-82
2022/09/14 10:55:43;;;;;;;7.43;2.70;;;;;;;;;;6207494;23;20059;-80
2022/09/14 10:58:16;;;;;;;12.90;9.18;;;;;;;;;;6205838;23;20016;-82
2022/09/14 11:00:50;;;;;;;3.17;1.90;;;;;;;;;;6203554;23;20012;-83
2022/09/14 11:03:18;;;;;;;3.80;1.60;;;;;;;;;;6181742;23;20345;-82
2022/09/14 11:06:03;;;;;;;4.10;1.90;;;;;;;;;;6230595;23;20083;-84
2022/09/14 11:08:28;;;;;;;3.85;2.10;;;;;;;;;;6181011;23;20009;-81
2022/09/14 11:11:12;;;;;;;3.90;1.80;;;;;;;;;;6205130;23;20047;-82
2022/09/14 11:13:47;;;;;;;4.55;1.60;;;;;;;;;;6205506;23;20024;-81
2022/09/14 11:16:16;;;;;;;5.28;1.95;;;;;;;;;;6235127;23;19993;-81
2022/09/14 11:18:53;;;;;;;3.55;1.58;;;;;;;;;;6184514;23;20088;-82
2022/09/14 11:21:32;;;;;;;2.63;1.55;;;;;;;;;;6209647;23;20032;-82
2022/09/14 11:24:05;;;;;;;1.80;1.20;;;;;;;;;;6184309;23;20024;-81
2022/09/14 11:26:38;;;;;;;4.60;2.17;;;;;;;;;;6207237;23;20012;-81
2022/09/14 11:29:07;;;;;;;2.60;1.45;;;;;;;;;;6181525;23;20008;-82
2022/09/14 11:32:03;;;;;;;3.35;1.40;;;;;;;;;;6201022;23;20078;-82
2022/09/14 11:34:42;;;;;;;3.17;1.60;;;;;;;;;;6183087;23;20004;-81
2022/09/14 11:37:09;;;;;;;4.30;1.70;;;;;;;;;;6225017;23;20052;-82
2022/09/14 11:39:41;;;;;;;4.88;2.85;;;;;;;;;;6176810;23;20451;-82
2022/09/14 11:42:27;;;;;;;2.90;1.80;;;;;;;;;;6176672;23;20062;-81
2022/09/14 11:44:56;;;;;;;3.47;1.70;;;;;;;;;;6202000;23;20025;-82
2022/09/14 11:47:28;;;;;;;2.20;1.58;;;;;;;;;;6176648;23;20009;-84
2022/09/14 11:50:10;;;;;;;2.95;1.60;;;;;;;;;;6204680;23;20039;-82
2022/09/14 11:52:35;;;;;;;3.47;1.77;;;;;;;;;;6197767;23;20016;-82
2022/09/14 11:55:00;;;;;;;;;;;;;;;;;;6149260;23;20009;-81
2022/09/14 11:57:30;;;;;;;2.42;1.55;;;;;;;;;;6201771;23;20251;-82
2022/09/14 11:59:59;;;;;;;3.20;1.65;;;;;;;;;;6173413;23;20009;-81
2022/09/14 12:02:26;;;;;;;2.42;1.40;;;;;;;;;;6175222;23;20024;-82
2022/09/14 12:05:04;;;;;;;2.90;1.75;;;;;;;;;;6176774;23;20031;-81
2022/09/14 12:07:54;;;;;;;2.88;1.63;;;;;;;;;;6199247;23;20009;-81
2022/09/14 12:10:20;;;;;;;2.80;1.45;;;;;;;;;;6184069;23;20033;-81
2022/09/14 12:12:48;;;;;;;3.88;1.73;;;;;;;;;;6171259;23;19997;-82
2022/09/14 12:15:18;;;;;;;4.20;1.40;;;;;;;;;;6198013;23;20120;-81
2022/09/14 12:17:44;;;;;;;2.95;1.40;;;;;;;;;;6173675;23;20005;-83
2022/09/14 12:20:39;;;;;;;5.63;1.35;;;;;;;;;;6200724;23;20044;-81
2022/09/14 12:23:11;;;;;;;3.03;1.92;;;;;;;;;;6205478;23;20021;-83
2022/09/14 12:25:52;;;;;;;4.63;1.60;;;;;;;;;;6228833;23;20457;-81
2022/09/14 12:28:47;;;;;;;2.85;1.65;;;;;;;;;;6203256;23;19989;-81
2022/09/14 12:34:05;;;;;;;3.22;1.30;;;;;;;;;;6173849;23;20014;-81
2022/09/14 12:36:31;;;;;;;4.78;1.52;;;;;;;;;;6199152;23;20021;-81
2022/09/14 12:38:56;;;;;;;2.72;1.40;;;;;;;;;;6169926;23;20013;-80
2022/09/14 12:46:47;;;;;;;3.63;1.33;;;;;;;;;;6235650;23;20027;-82
2022/09/14 12:49:29;;;;;;;3.97;1.20;;;;;;;;;;6205922;23;20420;-82
2022/09/14 12:51:57;;;;;;;2.45;1.20;;;;;;;;;;6205355;23;20012;-82
2022/09/14 12:54:41;;;;;;;2.80;1.10;;;;;;;;;;6205514;23;20011;-81
2022/09/14 12:57:13;;;;;;;2.08;1.00;;;;;;;;;;6179919;23;20012;-85
2022/09/14 12:59:57;;;;;;;4.10;1.40;;;;;;;;;;6203285;23;20016;-81
2022/09/14 13:02:42;;;;;;;5.38;1.83;;;;;;;;;;6180151;23;20013;-82
2022/09/14 13:05:12;;;;;;;1.95;1.08;;;;;;;;;;6206029;23;20101;-80
2022/09/14 13:07:38;;;;;;;2.55;1.48;;;;;;;;;;6180553;23;20028;-81
2022/09/14 13:10:04;;;;;;;2.35;1.10;;;;;;;;;;6178248;23;20060;-81
2022/09/14 13:12:33;;;;;;;2.10;1.10;;;;;;;;;;6155028;23;20017;-81
2022/09/14 13:15:03;;;;;;;2.40;0.98;;;;;;;;;;6181645;23;20000;-82
2022/09/14 13:17:29;;;;;;;3.95;1.20;;;;;;;;;;6208315;23;20032;-81
2022/09/14 13:19:55;;;;;;;3.20;1.20;;;;;;;;;;6207820;23;20000;-83
2022/09/14 13:22:22;;;;;;;3.75;1.20;;;;;;;;;;6178184;23;20008;-83
2022/09/14 13:24:48;;;;;;;3.60;1.40;;;;;;;;;;6176586;23;20012;-83
2022/09/14 13:27:33;;;;;;;2.60;1.08;;;;;;;;;;6178770;23;20444;-82
2022/09/14 13:30:16;;;;;;;1.48;1.00;;;;;;;;;;6178381;23;20008;-81
2022/09/14 13:32:42;;;;;;;3.80;1.45;;;;;;;;;;6206833;23;20005;-81
2022/09/14 13:35:28;;;;;;;2.95;1.40;;;;;;;;;;6205791;23;19984;-83
2022/09/14 13:37:54;;;;;;;4.05;1.73;;;;;;;;;;6204177;23;20035;-81
2022/09/14 13:40:27;;;;;;;3.33;1.10;;;;;;;;;;6183246;23;20008;-81
2022/09/14 13:42:53;;;;;;;2.53;0.90;;;;;;;;;;6182743;23;19988;-82
2022/09/14 13:45:18;;;;;;;4.20;0.90;;;;;;;;;;6157720;23;20022;-82
2022/09/14 13:47:47;;;;;;;3.08;0.80;;;;;;;;;;6209502;23;20008;-83
2022/09/14 13:50:13;;;;;;;2.05;0.90;;;;;;;;;;6181442;23;20024;-81
2022/09/14 13:52:41;;;;;;;2.33;0.80;;;;;;;;;;6176318;23;20016;-82
2022/09/14 13:55:20;;;;;;;1.38;0.88;;;;;;;;;;6151632;23;20019;-82
2022/09/14 13:58:05;;;;;;;4.43;0.88;;;;;;;;;;6148137;23;20009;-82
2022/09/14 14:00:30;;;;;;;1.85;0.90;;;;;;;;;;6149704;23;20012;-81
2022/09/14 14:05:44;;;;;;;1.33;0.70;;;;;;;;;;6197979;23;20031;-81
2022/09/14 14:08:39;;;;;;;1.60;0.70;;;;;;;;;;6186140;23;20023;-84
2022/09/14 14:11:05;;;;;;;1.27;0.80;;;;;;;;;;6182330;23;20016;-81
2022/09/14 14:13:31;;;;;;;1.63;0.85;;;;;;;;;;6185133;23;20020;-83
2022/09/14 14:18:34;;;;;;;2.40;0.70;;;;;;;;;;6236593;23;20024;-83
2022/09/14 14:21:19;;;;;;;3.47;1.05;;;;;;;;;;6207881;23;20021;-84
2022/09/14 14:23:46;;;;;;;0.80;0.68;;;;;;;;;;6234252;23;20039;-82
2022/09/14 14:26:15;;;;;;;2.38;0.93;;;;;;;;;;6182945;23;20004;-81
2022/09/14 14:28:41;;;;;;;2.13;0.90;;;;;;;;;;6181734;23;20024;-81
2022/09/14 14:31:12;;;;;;;2.03;0.65;;;;;;;;;;6204714;23;20003;-82
2022/09/14 14:33:43;;;;;;;1.67;0.98;;;;;;;;;;6235262;23;20029;-83
2022/09/14 14:36:09;;;;;;;1.77;0.98;;;;;;;;;;6207282;23;20194;-81
2022/09/14 14:38:35;;;;;;;1.88;0.90;;;;;;;;;;6207180;23;20012;-83
2022/09/14 14:41:01;;;;;;;1.98;0.60;;;;;;;;;;6181121;23;20060;-81
2022/09/14 14:43:27;;;;;;;2.40;1.33;;;;;;;;;;6181241;23;20001;-84
2022/09/14 14:45:58;;;;;;;4.38;1.00;;;;;;;;;;6206554;23;20039;-82
2022/09/14 14:48:25;;;;;;;3.20;1.00;;;;;;;;;;6182988;23;20013;-83
2022/09/14 15:01:36;;;;;;;3.55;1.60;;;;;;;;;;6232434;23;20056;-82
2022/09/14 15:04:02;;;;;;;3.28;1.95;;;;;;;;;;6181483;23;20005;-83
2022/09/14 15:06:27;;;;;;;7.35;3.42;;;;;;;;;;6157708;23;20005;-82
2022/09/14 15:08:53;;;;;;;;;;;;;;;;;;6180257;23;20004;-83
2022/09/14 15:11:18;;;;;;;6.85;2.33;;;;;;;;;;6208273;23;19915;-80
2022/09/14 15:13:44;;;;;;;4.80;2.70;;;;;;;;;;6179788;23;20008;-82
2022/09/14 15:16:10;;;;;;;;;;;;;;;;;;6182017;23;20007;-80
2022/09/14 15:18:35;;;;;;;4.75;3.28;;;;;;;;;;6208091;23;19926;-82
2022/09/14 15:21:01;;;;;;;5.78;3.50;;;;;;;;;;6235692;23;19997;-81
2022/09/14 15:23:27;;;;;;;;;;;;;;;;;;6183871;23;20040;-81
2022/09/14 15:25:52;;;;;;;6.28;3.88;;;;;;;;;;6210836;23;19907;-82
2022/09/14 15:28:18;;;;;;;10.25;7.00;;;;;;;;;;6184024;23;20012;-82
2022/09/14 15:30:44;;;;;;;12.93;9.82;;;;;;;;;;6182245;23;19996;-82
2022/09/14 15:33:10;;;;;;;13.15;11.20;;;;;;;;;;6186269;23;20023;-82
2022/09/14 15:35:35;;;;;;;12.75;10.15;;;;;;;;;;6206999;23;20024;-81
2022/09/14 15:38:01;;;;;;;9.00;7.13;;;;;;;;;;6157753;23;20023;-82
2022/09/14 15:40:26;;;;;;;;;;;;;;;;;;6210023;23;20001;-82
2022/09/14 15:42:52;;;;;;;7.72;5.70;;;;;;;;;;6207465;23;20342;-82
2022/09/14 15:45:18;;;;;;;;;;;;;;;;;;6157209;23;20083;-82
2022/09/14 15:47:43;;;;;;;6.32;4.82;;;;;;;;;;6204478;23;20058;-82
2022/09/14 15:50:10;;;;;;;8.70;5.93;;;;;;;;;;6174549;23;20025;-80
2022/09/14 15:52:36;;;;;;;9.90;5.60;;;;;;;;;;6153488;23;20013;-83
2022/09/14 15:55:02;;;;;;;9.75;5.55;;;;;;;;;;6127593;23;20009;-81